sensor_id;sensor_type;location;lat;lon;timestamp;pressure;altitude;pressure_sealevel;temperature;humidity
30708;BME280;17458;48.958;8.284;2023-12-20T00:00:36;100532.44;;;8.97;72.81
30708;BME280;17458;48.958;8.284;2023-12-20T00:03:21;100521.56;;;9.52;71.14
30708;BME280;17458;48.958;8.284;2023-12-20T00:06:05;100523.72;;;9.14;72.69
30708;BME280;17458;48.958;8.284;2023-12-20T00:08:49;100517.47;;;9.28;71.77
30708;BME280;17458;48.958;8.284;2023-12-20T00:11:33;100532.06;;;9.05;73.32
30708;BME280;17458;48.958;8.284;2023-12-20T00:14:17;100526.91;;;9.23;72.88
30708;BME280;17458;48.958;8.284;2023-12-20T00:17:01;100533.34;;;8.97;73.05
30708;BME280;17458;48.958;8.284;2023-12-20T00:19:45;100527.59;;;9.50;72.11
30708;BME280;17458;48.958;8.284;2023-12-20T00:22:29;100522.75;;;8.97;73.55
30708;BME280;17458;48.958;8.284;2023-12-20T00:25:13;100521.34;;;9.18;73.35
30708;BME280;17458;48.958;8.284;2023-12-20T00:27:57;100522.13;;;9.32;73.27
30708;BME280;17458;48.958;8.284;2023-12-20T00:30:41;100514.69;;;9.10;73.67
30708;BME280;17458;48.958;8.284;2023-12-20T00:33:25;100521.91;;;9.44;72.88
30708;BME280;17458;48.958;8.284;2023-12-20T00:36:09;100519.66;;;8.75;74.98
30708;BME280;17458;48.958;8.284;2023-12-20T00:38:53;100530.19;;;9.34;73.35
30708;BME280;17458;48.958;8.284;2023-12-20T00:41:37;100527.06;;;8.80;74.23
30708;BME280;17458;48.958;8.284;2023-12-20T00:44:21;100533.59;;;8.87;74.72
30708;BME280;17458;48.958;8.284;2023-12-20T00:47:05;100536.13;;;9.15;73.55
30708;BME280;17458;48.958;8.284;2023-12-20T00:49:49;100528.25;;;9.31;73.83
30708;BME280;17458;48.958;8.284;2023-12-20T00:52:33;100538.50;;;9.56;72.38
30708;BME280;17458;48.958;8.284;2023-12-20T00:55:17;100538.66;;;9.43;72.64
30708;BME280;17458;48.958;8.284;2023-12-20T00:58:01;100546.72;;;9.30;73.10
30708;BME280;17458;48.958;8.284;2023-12-20T01:00:45;100539.72;;;9.01;73.78
30708;BME280;17458;48.958;8.284;2023-12-20T01:03:29;100554.66;;;9.30;73.77
30708;BME280;17458;48.958;8.284;2023-12-20T01:06:13;100543.84;;;9.72;72.12
30708;BME280;17458;48.958;8.284;2023-12-20T01:08:58;100545.56;;;9.55;73.32
30708;BME280;17458;48.958;8.284;2023-12-20T01:11:42;100540.69;;;9.32;73.68
30708;BME280;17458;48.958;8.284;2023-12-20T01:14:25;100539.44;;;9.26;73.76
30708;BME280;17458;48.958;8.284;2023-12-20T01:17:09;100533.94;;;9.37;73.87
30708;BME280;17458;48.958;8.284;2023-12-20T01:19:53;100534.44;;;9.46;73.80
30708;BME280;17458;48.958;8.284;2023-12-20T01:22:37;100531.69;;;8.99;75.22
30708;BME280;17458;48.958;8.284;2023-12-20T01:25:21;100523.56;;;9.42;73.86
30708;BME280;17458;48.958;8.284;2023-12-20T01:28:05;100516.94;;;9.65;72.60
30708;BME280;17458;48.958;8.284;2023-12-20T01:30:49;100516.78;;;9.47;73.33
30708;BME280;17458;48.958;8.284;2023-12-20T01:33:33;100516.38;;;9.39;73.70
30708;BME280;17458;48.958;8.284;2023-12-20T01:36:17;100511.94;;;9.71;72.79
30708;BME280;17458;48.958;8.284;2023-12-20T01:39:01;100512.22;;;9.75;72.51
30708;BME280;17458;48.958;8.284;2023-12-20T01:41:45;100519.66;;;9.35;73.71
30708;BME280;17458;48.958;8.284;2023-12-20T01:44:29;100516.56;;;9.28;74.60
30708;BME280;17458;48.958;8.284;2023-12-20T01:47:13;100512.19;;;9.13;75.09
30708;BME280;17458;48.958;8.284;2023-12-20T01:49:58;100502.94;;;9.36;74.51
30708;BME280;17458;48.958;8.284;2023-12-20T01:52:43;100499.09;;;9.31;74.61
30708;BME280;17458;48.958;8.284;2023-12-20T01:55:29;100495.94;;;9.22;74.86
30708;BME280;17458;48.958;8.284;2023-12-20T01:58:16;100500.53;;;9.41;73.65
30708;BME280;17458;48.958;8.284;2023-12-20T02:01:01;100505.38;;;9.48;74.21
30708;BME280;17458;48.958;8.284;2023-12-20T02:03:45;100501.19;;;9.84;72.56
30708;BME280;17458;48.958;8.284;2023-12-20T02:06:30;100501.31;;;9.54;73.99
30708;BME280;17458;48.958;8.284;2023-12-20T02:09:18;100511.44;;;9.62;73.00
30708;BME280;17458;48.958;8.284;2023-12-20T02:12:02;100515.59;;;9.26;74.80
30708;BME280;17458;48.958;8.284;2023-12-20T02:14:46;100501.50;;;9.57;73.69
30708;BME280;17458;48.958;8.284;2023-12-20T02:17:31;100501.53;;;9.43;74.16
30708;BME280;17458;48.958;8.284;2023-12-20T02:20:16;100503.38;;;9.44;74.50
30708;BME280;17458;48.958;8.284;2023-12-20T02:23:00;100504.56;;;9.49;74.64
30708;BME280;17458;48.958;8.284;2023-12-20T02:25:44;100502.34;;;9.73;73.95
30708;BME280;17458;48.958;8.284;2023-12-20T02:28:28;100499.28;;;9.34;74.53
30708;BME280;17458;48.958;8.284;2023-12-20T02:31:13;100507.97;;;9.63;74.04
30708;BME280;17458;48.958;8.284;2023-12-20T02:33:57;100503.19;;;9.41;73.97
30708;BME280;17458;48.958;8.284;2023-12-20T02:36:41;100498.25;;;10.10;72.44
30708;BME280;17458;48.958;8.284;2023-12-20T02:39:25;100514.69;;;9.41;73.74
30708;BME280;17458;48.958;8.284;2023-12-20T02:42:09;100518.56;;;9.63;74.08
30708;BME280;17458;48.958;8.284;2023-12-20T02:44:53;100516.69;;;9.76;73.07
30708;BME280;17458;48.958;8.284;2023-12-20T02:47:37;100528.50;;;9.50;73.83
30708;BME280;17458;48.958;8.284;2023-12-20T02:50:21;100521.50;;;9.83;72.91
30708;BME280;17458;48.958;8.284;2023-12-20T02:53:05;100523.41;;;9.39;74.47
30708;BME280;17458;48.958;8.284;2023-12-20T02:55:49;100532.63;;;9.45;74.51
30708;BME280;17458;48.958;8.284;2023-12-20T02:58:33;100536.78;;;10.04;72.42
30708;BME280;17458;48.958;8.284;2023-12-20T03:01:17;100523.50;;;9.87;72.91
30708;BME280;17458;48.958;8.284;2023-12-20T03:04:01;100531.34;;;9.70;73.12
30708;BME280;17458;48.958;8.284;2023-12-20T03:06:45;100533.22;;;10.03;72.13
30708;BME280;17458;48.958;8.284;2023-12-20T03:09:29;100529.75;;;10.04;72.47
30708;BME280;17458;48.958;8.284;2023-12-20T03:12:13;100530.72;;;9.90;72.83
30708;BME280;17458;48.958;8.284;2023-12-20T03:14:57;100532.81;;;9.95;72.64
30708;BME280;17458;48.958;8.284;2023-12-20T03:17:41;100531.47;;;9.56;73.83
30708;BME280;17458;48.958;8.284;2023-12-20T03:20:24;100525.78;;;9.34;75.65
30708;BME280;17458;48.958;8.284;2023-12-20T03:23:09;100515.38;;;9.68;74.16
30708;BME280;17458;48.958;8.284;2023-12-20T03:25:53;100526.84;;;9.52;74.87
30708;BME280;17458;48.958;8.284;2023-12-20T03:28:37;100535.91;;;9.72;73.71
30708;BME280;17458;48.958;8.284;2023-12-20T03:31:21;100537.47;;;9.69;74.03
30708;BME280;17458;48.958;8.284;2023-12-20T03:34:05;100545.38;;;9.83;73.02
30708;BME280;17458;48.958;8.284;2023-12-20T03:36:49;100541.03;;;9.53;73.92
30708;BME280;17458;48.958;8.284;2023-12-20T03:39:33;100530.69;;;9.74;73.94
30708;BME280;17458;48.958;8.284;2023-12-20T03:42:17;100536.84;;;9.89;72.91
30708;BME280;17458;48.958;8.284;2023-12-20T03:45:01;100538.56;;;9.41;75.02
30708;BME280;17458;48.958;8.284;2023-12-20T03:47:45;100531.81;;;9.93;73.52
30708;BME280;17458;48.958;8.284;2023-12-20T03:50:29;100532.69;;;9.78;73.76
30708;BME280;17458;48.958;8.284;2023-12-20T03:53:13;100543.13;;;9.75;74.33
30708;BME280;17458;48.958;8.284;2023-12-20T03:55:57;100540.34;;;9.57;74.86
30708;BME280;17458;48.958;8.284;2023-12-20T03:58:41;100533.44;;;9.44;74.47
30708;BME280;17458;48.958;8.284;2023-12-20T04:01:25;100538.16;;;9.97;73.76
30708;BME280;17458;48.958;8.284;2023-12-20T04:04:10;100537.47;;;9.69;73.69
30708;BME280;17458;48.958;8.284;2023-12-20T04:06:54;100547.66;;;9.61;75.15
30708;BME280;17458;48.958;8.284;2023-12-20T04:09:38;100543.47;;;9.81;74.51
30708;BME280;17458;48.958;8.284;2023-12-20T04:12:22;100549.84;;;9.84;73.86
30708;BME280;17458;48.958;8.284;2023-12-20T04:15:06;100554.19;;;9.51;74.35
30708;BME280;17458;48.958;8.284;2023-12-20T04:17:53;100542.75;;;9.52;74.75
30708;BME280;17458;48.958;8.284;2023-12-20T04:20:36;100546.09;;;9.34;75.08
30708;BME280;17458;48.958;8.284;2023-12-20T04:23:20;100548.81;;;9.35;75.61
30708;BME280;17458;48.958;8.284;2023-12-20T04:26:04;100545.13;;;9.48;75.28
30708;BME280;17458;48.958;8.284;2023-12-20T04:28:48;100555.81;;;9.49;74.92
30708;BME280;17458;48.958;8.284;2023-12-20T04:31:32;100559.75;;;9.41;75.26
30708;BME280;17458;48.958;8.284;2023-12-20T04:34:16;100563.28;;;9.56;74.62
30708;BME280;17458;48.958;8.284;2023-12-20T04:37:00;100562.28;;;9.54;75.29
30708;BME280;17458;48.958;8.284;2023-12-20T04:39:45;100570.66;;;9.77;74.61
30708;BME280;17458;48.958;8.284;2023-12-20T04:42:29;100575.97;;;10.40;71.79
30708;BME280;17458;48.958;8.284;2023-12-20T04:45:13;100567.56;;;10.99;69.35
30708;BME280;17458;48.958;8.284;2023-12-20T04:47:59;100574.91;;;11.56;67.60
30708;BME280;17458;48.958;8.284;2023-12-20T04:50:43;100566.47;;;11.12;68.92
30708;BME280;17458;48.958;8.284;2023-12-20T04:53:27;100569.06;;;11.46;66.78
30708;BME280;17458;48.958;8.284;2023-12-20T04:56:11;100565.16;;;10.70;68.91
30708;BME280;17458;48.958;8.284;2023-12-20T04:58:55;100578.50;;;11.21;68.20
30708;BME280;17458;48.958;8.284;2023-12-20T05:01:39;100591.28;;;11.64;66.58
30708;BME280;17458;48.958;8.284;2023-12-20T05:04:23;100591.59;;;10.84;69.15
30708;BME280;17458;48.958;8.284;2023-12-20T05:07:07;100592.75;;;11.06;68.01
30708;BME280;17458;48.958;8.284;2023-12-20T05:09:51;100595.31;;;11.04;68.11
30708;BME280;17458;48.958;8.284;2023-12-20T05:12:35;100593.91;;;11.28;67.74
30708;BME280;17458;48.958;8.284;2023-12-20T05:15:19;100589.53;;;11.13;67.56
30708;BME280;17458;48.958;8.284;2023-12-20T05:18:03;100591.94;;;11.42;66.66
30708;BME280;17458;48.958;8.284;2023-12-20T05:20:47;100598.84;;;11.56;66.45
30708;BME280;17458;48.958;8.284;2023-12-20T05:23:31;100603.25;;;11.20;67.65
30708;BME280;17458;48.958;8.284;2023-12-20T05:26:15;100603.94;;;11.69;66.69
30708;BME280;17458;48.958;8.284;2023-12-20T05:28:59;100603.28;;;10.38;69.91
30708;BME280;17458;48.958;8.284;2023-12-20T05:31:43;100603.66;;;10.78;68.87
30708;BME280;17458;48.958;8.284;2023-12-20T05:34:27;100607.94;;;11.26;67.44
30708;BME280;17458;48.958;8.284;2023-12-20T05:37:12;100615.03;;;10.91;68.17
30708;BME280;17458;48.958;8.284;2023-12-20T05:39:56;100610.88;;;11.14;68.52
30708;BME280;17458;48.958;8.284;2023-12-20T05:42:40;100619.97;;;11.53;66.61
30708;BME280;17458;48.958;8.284;2023-12-20T05:45:24;100613.91;;;11.04;68.56
30708;BME280;17458;48.958;8.284;2023-12-20T05:48:08;100615.69;;;10.87;68.38
30708;BME280;17458;48.958;8.284;2023-12-20T05:50:52;100617.78;;;11.11;68.58
30708;BME280;17458;48.958;8.284;2023-12-20T05:53:36;100616.25;;;11.67;66.38
30708;BME280;17458;48.958;8.284;2023-12-20T05:56:20;100612.00;;;11.01;68.13
30708;BME280;17458;48.958;8.284;2023-12-20T05:59:03;100612.25;;;11.06;68.22
30708;BME280;17458;48.958;8.284;2023-12-20T06:01:47;100619.91;;;10.84;68.50
30708;BME280;17458;48.958;8.284;2023-12-20T06:04:32;100629.59;;;12.03;66.24
30708;BME280;17458;48.958;8.284;2023-12-20T06:07:16;100642.19;;;11.71;65.55
30708;BME280;17458;48.958;8.284;2023-12-20T06:10:00;100655.41;;;11.70;66.11
30708;BME280;17458;48.958;8.284;2023-12-20T06:12:44;100662.31;;;11.66;66.03
30708;BME280;17458;48.958;8.284;2023-12-20T06:15:31;100663.28;;;11.33;66.57
30708;BME280;17458;48.958;8.284;2023-12-20T06:18:14;100664.66;;;11.77;65.36
30708;BME280;17458;48.958;8.284;2023-12-20T06:20:58;100660.31;;;11.96;64.74
30708;BME280;17458;48.958;8.284;2023-12-20T06:23:42;100667.22;;;12.11;64.08
30708;BME280;17458;48.958;8.284;2023-12-20T06:26:26;100681.31;;;11.90;64.42
30708;BME280;17458;48.958;8.284;2023-12-20T06:29:10;100681.50;;;12.13;63.25
30708;BME280;17458;48.958;8.284;2023-12-20T06:31:54;100700.38;;;11.99;63.62
30708;BME280;17458;48.958;8.284;2023-12-20T06:34:38;100687.75;;;12.13;62.54
30708;BME280;17458;48.958;8.284;2023-12-20T06:37:22;100686.91;;;12.32;62.42
30708;BME280;17458;48.958;8.284;2023-12-20T06:40:07;100688.72;;;12.33;62.41
30708;BME280;17458;48.958;8.284;2023-12-20T06:42:51;100695.97;;;15.27;63.34
30708;BME280;17458;48.958;8.284;2023-12-20T06:45:35;100701.16;;;16.52;59.17
30708;BME280;17458;48.958;8.284;2023-12-20T06:48:19;100698.69;;;16.31;54.67
30708;BME280;17458;48.958;8.284;2023-12-20T06:51:05;100702.50;;;17.24;53.31
30708;BME280;17458;48.958;8.284;2023-12-20T06:53:49;100717.22;;;16.23;51.34
30708;BME280;17458;48.958;8.284;2023-12-20T06:56:33;100719.06;;;15.24;52.01
30708;BME280;17458;48.958;8.284;2023-12-20T06:59:17;100727.13;;;14.35;53.98
30708;BME280;17458;48.958;8.284;2023-12-20T07:02:01;100737.38;;;14.04;54.87
30708;BME280;17458;48.958;8.284;2023-12-20T07:04:46;100744.66;;;13.45;56.46
30708;BME280;17458;48.958;8.284;2023-12-20T07:07:30;100745.19;;;13.58;56.42
30708;BME280;17458;48.958;8.284;2023-12-20T07:10:14;100752.81;;;13.69;55.88
30708;BME280;17458;48.958;8.284;2023-12-20T07:12:58;100757.94;;;13.44;56.82
30708;BME280;17458;48.958;8.284;2023-12-20T07:15:42;100756.25;;;12.70;58.57
30708;BME280;17458;48.958;8.284;2023-12-20T07:18:26;100760.16;;;12.59;59.71
30708;BME280;17458;48.958;8.284;2023-12-20T07:21:10;100756.56;;;12.59;60.20
30708;BME280;17458;48.958;8.284;2023-12-20T07:23:54;100752.94;;;12.03;60.77
30708;BME280;17458;48.958;8.284;2023-12-20T07:26:38;100763.38;;;12.17;60.72
30708;BME280;17458;48.958;8.284;2023-12-20T07:29:23;100767.97;;;11.69;61.58
30708;BME280;17458;48.958;8.284;2023-12-20T07:32:07;100752.84;;;11.18;62.09
30708;BME280;17458;48.958;8.284;2023-12-20T07:34:52;100758.72;;;10.96;62.86
30708;BME280;17458;48.958;8.284;2023-12-20T07:37:37;100758.25;;;11.19;61.73
30708;BME280;17458;48.958;8.284;2023-12-20T07:40:21;100763.16;;;10.79;62.36
30708;BME280;17458;48.958;8.284;2023-12-20T07:43:05;100763.28;;;11.47;60.02
30708;BME280;17458;48.958;8.284;2023-12-20T07:45:49;100755.44;;;11.00;60.33
30708;BME280;17458;48.958;8.284;2023-12-20T07:48:34;100762.56;;;11.33;60.33
30708;BME280;17458;48.958;8.284;2023-12-20T07:51:19;100765.41;;;11.36;59.69
30708;BME280;17458;48.958;8.284;2023-12-20T07:54:04;100773.50;;;11.56;59.13
30708;BME280;17458;48.958;8.284;2023-12-20T07:56:49;100778.69;;;11.87;58.42
30708;BME280;17458;48.958;8.284;2023-12-20T07:59:33;100781.69;;;11.93;57.91
30708;BME280;17458;48.958;8.284;2023-12-20T08:02:16;100793.34;;;12.13;57.03
30708;BME280;17458;48.958;8.284;2023-12-20T08:05:00;100794.94;;;12.45;56.08
30708;BME280;17458;48.958;8.284;2023-12-20T08:07:44;100795.69;;;12.24;56.85
30708;BME280;17458;48.958;8.284;2023-12-20T08:10:28;100797.34;;;11.87;58.82
30708;BME280;17458;48.958;8.284;2023-12-20T08:13:14;100804.31;;;11.68;60.20
30708;BME280;17458;48.958;8.284;2023-12-20T08:15:58;100798.72;;;11.96;59.51
30708;BME280;17458;48.958;8.284;2023-12-20T08:18:42;100806.59;;;11.61;60.58
30708;BME280;17458;48.958;8.284;2023-12-20T08:21:25;100806.72;;;11.80;60.19
30708;BME280;17458;48.958;8.284;2023-12-20T08:24:09;100802.63;;;12.21;58.93
30708;BME280;17458;48.958;8.284;2023-12-20T08:26:53;100807.19;;;12.05;59.12
30708;BME280;17458;48.958;8.284;2023-12-20T08:29:37;100805.69;;;11.77;59.77
30708;BME280;17458;48.958;8.284;2023-12-20T08:32:21;100801.41;;;11.80;59.94
30708;BME280;17458;48.958;8.284;2023-12-20T08:35:05;100806.81;;;11.65;59.93
30708;BME280;17458;48.958;8.284;2023-12-20T08:37:50;100814.75;;;11.48;61.04
30708;BME280;17458;48.958;8.284;2023-12-20T08:40:34;100827.94;;;11.30;61.73
30708;BME280;17458;48.958;8.284;2023-12-20T08:43:17;100826.03;;;11.92;59.29
30708;BME280;17458;48.958;8.284;2023-12-20T08:46:02;100838.50;;;11.28;61.14
30708;BME280;17458;48.958;8.284;2023-12-20T08:48:46;100826.28;;;11.81;60.57
30708;BME280;17458;48.958;8.284;2023-12-20T08:51:30;100830.31;;;10.77;63.37
30708;BME280;17458;48.958;8.284;2023-12-20T08:54:14;100832.13;;;11.09;62.72
30708;BME280;17458;48.958;8.284;2023-12-20T08:57:00;100822.97;;;11.36;60.55
30708;BME280;17458;48.958;8.284;2023-12-20T08:59:44;100826.19;;;10.67;62.87
30708;BME280;17458;48.958;8.284;2023-12-20T09:02:28;100825.47;;;11.17;61.68
30708;BME280;17458;48.958;8.284;2023-12-20T09:05:13;100826.19;;;10.98;62.01
30708;BME280;17458;48.958;8.284;2023-12-20T09:07:57;100825.16;;;10.80;61.81
30708;BME280;17458;48.958;8.284;2023-12-20T09:10:41;100826.28;;;10.38;63.05
30708;BME280;17458;48.958;8.284;2023-12-20T09:13:25;100826.44;;;11.02;61.90
30708;BME280;17458;48.958;8.284;2023-12-20T09:16:12;100824.13;;;11.09;61.34
30708;BME280;17458;48.958;8.284;2023-12-20T09:18:57;100813.72;;;11.13;62.14
30708;BME280;17458;48.958;8.284;2023-12-20T09:21:41;100810.34;;;11.32;60.69
30708;BME280;17458;48.958;8.284;2023-12-20T09:24:25;100814.97;;;11.52;60.96
30708;BME280;17458;48.958;8.284;2023-12-20T09:27:09;100816.81;;;11.53;60.38
30708;BME280;17458;48.958;8.284;2023-12-20T09:29:53;100813.47;;;11.73;59.32
30708;BME280;17458;48.958;8.284;2023-12-20T09:32:37;100811.16;;;11.15;61.03
30708;BME280;17458;48.958;8.284;2023-12-20T09:35:21;100810.56;;;10.88;61.65
30708;BME280;17458;48.958;8.284;2023-12-20T09:38:06;100814.00;;;11.50;60.71
30708;BME280;17458;48.958;8.284;2023-12-20T09:40:50;100816.38;;;10.97;62.30
30708;BME280;17458;48.958;8.284;2023-12-20T09:43:37;100817.88;;;10.92;62.47
30708;BME280;17458;48.958;8.284;2023-12-20T09:46:23;100810.66;;;11.54;60.47
30708;BME280;17458;48.958;8.284;2023-12-20T09:49:08;100835.41;;;11.05;61.89
30708;BME280;17458;48.958;8.284;2023-12-20T09:51:53;100828.00;;;11.80;60.34
30708;BME280;17458;48.958;8.284;2023-12-20T09:54:37;100827.59;;;11.72;59.75
30708;BME280;17458;48.958;8.284;2023-12-20T09:57:21;100823.94;;;11.70;60.21
30708;BME280;17458;48.958;8.284;2023-12-20T10:00:06;100831.66;;;11.66;59.86
30708;BME280;17458;48.958;8.284;2023-12-20T10:02:58;100833.50;;;11.67;60.28
30708;BME280;17458;48.958;8.284;2023-12-20T10:05:43;100823.97;;;11.22;60.27
30708;BME280;17458;48.958;8.284;2023-12-20T10:08:28;100822.19;;;11.71;60.01
30708;BME280;17458;48.958;8.284;2023-12-20T10:11:13;100823.75;;;12.00;58.47
30708;BME280;17458;48.958;8.284;2023-12-20T10:13:59;100825.22;;;11.28;59.84
30708;BME280;17458;48.958;8.284;2023-12-20T10:16:46;100808.16;;;11.57;59.41
30708;BME280;17458;48.958;8.284;2023-12-20T10:19:30;100821.53;;;11.75;59.25
30708;BME280;17458;48.958;8.284;2023-12-20T10:22:15;100806.34;;;11.40;59.13
30708;BME280;17458;48.958;8.284;2023-12-20T10:24:59;100807.78;;;11.50;59.15
30708;BME280;17458;48.958;8.284;2023-12-20T10:27:43;100808.22;;;11.91;58.12
30708;BME280;17458;48.958;8.284;2023-12-20T10:30:27;100809.41;;;11.64;58.74
30708;BME280;17458;48.958;8.284;2023-12-20T10:33:11;100807.44;;;11.76;58.77
30708;BME280;17458;48.958;8.284;2023-12-20T10:35:56;100805.22;;;11.85;57.58
30708;BME280;17458;48.958;8.284;2023-12-20T10:38:42;100801.09;;;11.42;59.43
30708;BME280;17458;48.958;8.284;2023-12-20T10:41:30;100799.81;;;12.18;57.61
30708;BME280;17458;48.958;8.284;2023-12-20T10:44:15;100790.59;;;12.11;57.34
30708;BME280;17458;48.958;8.284;2023-12-20T10:47:00;100786.13;;;12.28;57.26
30708;BME280;17458;48.958;8.284;2023-12-20T10:49:44;100775.38;;;11.91;57.57
30708;BME280;17458;48.958;8.284;2023-12-20T10:52:30;100784.41;;;11.77;57.63
30708;BME280;17458;48.958;8.284;2023-12-20T10:55:17;100778.41;;;11.64;58.08
30708;BME280;17458;48.958;8.284;2023-12-20T10:58:03;100781.75;;;12.12;57.08
30708;BME280;17458;48.958;8.284;2023-12-20T11:00:53;100779.44;;;11.84;58.23
30708;BME280;17458;48.958;8.284;2023-12-20T11:03:44;100774.47;;;12.43;56.50
30708;BME280;17458;48.958;8.284;2023-12-20T11:06:43;100766.09;;;12.00;56.15
30708;BME280;17458;48.958;8.284;2023-12-20T11:09:33;100766.63;;;12.29;56.26
30708;BME280;17458;48.958;8.284;2023-12-20T11:12:34;100760.63;;;12.15;55.87
30708;BME280;17458;48.958;8.284;2023-12-20T11:15:20;100764.22;;;12.16;56.44
30708;BME280;17458;48.958;8.284;2023-12-20T11:18:05;100768.94;;;11.37;57.91
30708;BME280;17458;48.958;8.284;2023-12-20T11:20:50;100754.63;;;12.01;56.58
30708;BME280;17458;48.958;8.284;2023-12-20T11:23:34;100765.56;;;12.07;56.56
30708;BME280;17458;48.958;8.284;2023-12-20T11:26:24;100761.59;;;11.99;56.18
30708;BME280;17458;48.958;8.284;2023-12-20T11:29:29;100759.31;;;11.89;56.08
30708;BME280;17458;48.958;8.284;2023-12-20T11:37:57;100764.72;;;12.62;55.07
30708;BME280;17458;48.958;8.284;2023-12-20T11:40:43;100761.22;;;12.10;56.29
30708;BME280;17458;48.958;8.284;2023-12-20T11:43:37;100762.19;;;11.60;57.23
30708;BME280;17458;48.958;8.284;2023-12-20T11:46:22;100739.84;;;11.40;58.28
30708;BME280;17458;48.958;8.284;2023-12-20T11:49:06;100735.81;;;11.30;57.38
30708;BME280;17458;48.958;8.284;2023-12-20T11:51:50;100735.91;;;12.00;56.77
30708;BME280;17458;48.958;8.284;2023-12-20T11:54:34;100737.50;;;12.14;56.20
30708;BME280;17458;48.958;8.284;2023-12-20T11:57:18;100749.25;;;11.50;57.57
30708;BME280;17458;48.958;8.284;2023-12-20T12:00:03;100759.56;;;12.12;55.96
30708;BME280;17458;48.958;8.284;2023-12-20T12:02:59;100743.66;;;11.95;56.61
30708;BME280;17458;48.958;8.284;2023-12-20T12:05:43;100747.56;;;12.20;55.66
30708;BME280;17458;48.958;8.284;2023-12-20T12:08:27;100747.91;;;12.10;55.63
30708;BME280;17458;48.958;8.284;2023-12-20T12:11:11;100752.66;;;12.33;55.24
30708;BME280;17458;48.958;8.284;2023-12-20T12:13:55;100749.38;;;12.03;55.52
30708;BME280;17458;48.958;8.284;2023-12-20T12:16:41;100738.25;;;11.76;56.49
30708;BME280;17458;48.958;8.284;2023-12-20T12:19:27;100735.28;;;12.41;54.92
30708;BME280;17458;48.958;8.284;2023-12-20T12:22:13;100738.72;;;12.21;55.38
30708;BME280;17458;48.958;8.284;2023-12-20T12:24:59;100732.91;;;11.94;55.56
30708;BME280;17458;48.958;8.284;2023-12-20T12:27:52;100733.47;;;11.70;55.92
30708;BME280;17458;48.958;8.284;2023-12-20T12:30:36;100730.19;;;11.58;55.91
30708;BME280;17458;48.958;8.284;2023-12-20T12:33:20;100732.44;;;12.38;54.52
30708;BME280;17458;48.958;8.284;2023-12-20T12:36:05;100729.97;;;11.71;56.41
30708;BME280;17458;48.958;8.284;2023-12-20T12:38:50;100725.63;;;11.56;56.84
30708;BME280;17458;48.958;8.284;2023-12-20T12:41:34;100729.28;;;12.27;55.34
30708;BME280;17458;48.958;8.284;2023-12-20T12:44:19;100722.88;;;12.41;54.49
30708;BME280;17458;48.958;8.284;2023-12-20T12:47:04;100718.31;;;11.86;55.70
30708;BME280;17458;48.958;8.284;2023-12-20T12:49:51;100724.50;;;12.02;55.51
30708;BME280;17458;48.958;8.284;2023-12-20T12:52:36;100720.84;;;11.32;56.27
30708;BME280;17458;48.958;8.284;2023-12-20T12:55:21;100722.97;;;11.90;55.40
30708;BME280;17458;48.958;8.284;2023-12-20T12:58:05;100730.28;;;11.60;55.89
30708;BME280;17458;48.958;8.284;2023-12-20T13:00:49;100728.94;;;12.39;54.43
30708;BME280;17458;48.958;8.284;2023-12-20T13:03:35;100725.03;;;12.13;54.30
30708;BME280;17458;48.958;8.284;2023-12-20T13:06:19;100728.06;;;11.69;55.51
30708;BME280;17458;48.958;8.284;2023-12-20T13:09:04;100729.81;;;12.02;55.15
30708;BME280;17458;48.958;8.284;2023-12-20T13:11:48;100725.19;;;12.34;54.22
30708;BME280;17458;48.958;8.284;2023-12-20T13:14:33;100722.44;;;12.15;54.09
30708;BME280;17458;48.958;8.284;2023-12-20T13:17:19;100726.84;;;11.96;55.33
30708;BME280;17458;48.958;8.284;2023-12-20T13:20:03;100719.94;;;11.66;55.19
30708;BME280;17458;48.958;8.284;2023-12-20T13:22:48;100715.34;;;11.46;56.30
30708;BME280;17458;48.958;8.284;2023-12-20T13:25:32;100713.38;;;12.29;54.33
30708;BME280;17458;48.958;8.284;2023-12-20T13:28:17;100710.56;;;11.56;55.73
30708;BME280;17458;48.958;8.284;2023-12-20T13:31:01;100714.94;;;11.72;55.30
30708;BME280;17458;48.958;8.284;2023-12-20T13:33:45;100698.38;;;11.44;56.02
30708;BME280;17458;48.958;8.284;2023-12-20T13:36:30;100701.34;;;11.32;56.33
30708;BME280;17458;48.958;8.284;2023-12-20T13:39:14;100699.09;;;11.91;55.03
30708;BME280;17458;48.958;8.284;2023-12-20T13:41:58;100686.41;;;12.03;54.48
30708;BME280;17458;48.958;8.284;2023-12-20T13:44:42;100697.41;;;11.93;54.95
30708;BME280;17458;48.958;8.284;2023-12-20T13:47:26;100685.63;;;11.54;55.86
30708;BME280;17458;48.958;8.284;2023-12-20T13:50:10;100680.75;;;11.97;55.58
30708;BME280;17458;48.958;8.284;2023-12-20T13:52:53;100670.09;;;11.62;56.53
30708;BME280;17458;48.958;8.284;2023-12-20T13:55:38;100683.34;;;11.44;56.54
30708;BME280;17458;48.958;8.284;2023-12-20T13:58:25;100672.56;;;11.93;55.76
30708;BME280;17458;48.958;8.284;2023-12-20T14:01:10;100663.19;;;12.01;55.34
30708;BME280;17458;48.958;8.284;2023-12-20T14:03:55;100655.41;;;11.70;56.06
30708;BME280;17458;48.958;8.284;2023-12-20T14:06:38;100654.47;;;12.03;54.78
30708;BME280;17458;48.958;8.284;2023-12-20T14:09:23;100655.72;;;11.94;55.00
30708;BME280;17458;48.958;8.284;2023-12-20T14:12:07;100664.94;;;11.83;55.46
30708;BME280;17458;48.958;8.284;2023-12-20T14:14:52;100658.31;;;11.75;55.98
30708;BME280;17458;48.958;8.284;2023-12-20T14:17:40;100660.63;;;12.02;55.53
30708;BME280;17458;48.958;8.284;2023-12-20T14:20:25;100657.47;;;11.93;55.37
30708;BME280;17458;48.958;8.284;2023-12-20T14:23:10;100657.31;;;12.26;54.83
30708;BME280;17458;48.958;8.284;2023-12-20T14:25:54;100653.03;;;11.58;55.79
30708;BME280;17458;48.958;8.284;2023-12-20T14:28:43;100661.59;;;11.87;55.48